Warren, PA (16365)

2:13 AM EST on February 12, 2016 (GMT -0500)
North Warren | | Change Station
CLOSE
Current Station
Personal Weather Station
Location: Warren, PA
Elevation: 1276 ft
Nearby Weather Stations
Active Advisory: Wind Chill Watch Active Notice: Local Storm Report

Elev 1276 ft 41.88 °N, 79.17 °W | Updated 2 seconds ago

Overcast
Overcast
7.8 °F
Feels Like 8 °F
N
0.0
Wind Variable Wind from WSW
Gusts 0.0 mph

Today
High -- | Low -- °F
--% Chance of Precip.
Yesterday
High -- | Low -- °F
Precip. -- in
Pressure 30.08 in
Visibility 10.0 miles
Clouds Few 2200 ft
Overcast 4100 ft
Windchill 8 °F
Dew Point 8 °F
Humidity 98%
Rainfall 7.78 in
Snow Depth Not available.
7:17 AM 5:45 PM
Waxing Crescent, 18% visible
METAR KJHW 120655Z AUTO 00000KT 10SM FEW022 OVC041 M13/M16 A3008 RMK AO1
Pressure 30.08 in
Visibility 10.0 miles
Clouds Few 2200 ft
Overcast 4100 ft
Windchill 8 °F
Dew Point 8 °F
Humidity 98%
Rainfall 7.78 in
Snow Depth Not available.
7:17 AM 5:45 PM
Waxing Crescent, 18% visible
METAR KJHW 120655Z AUTO 00000KT 10SM FEW022 OVC041 M13/M16 A3008 RMK AO1

10-Day Weather Forecast

Almanac

Astronomy

Feb. 12, 2016 Rise Set
Actual Time
Civil Twilight
Nautical Twilight
Astronomical Twilight
Moon
Length of Visible Light
Length of Day
Tomorrow will be .
, % of the Moon is Illuminated

Today's Extremes

State Highs State Lows

Community

WunderPhotos

Upload Photos

1,892,278 photos uploaded!

WunderBlog® & News

Nearby

Air Quality

  Air Quality AQ Index Pollutant
Not available.

Snow Depth

Station Depth Elevation

Earthquake Activity

City Distance Mag. Time & Date
Minimum magnitude displayed is 2.5.

Coastal Water Temperatures

Place Temperature

Stations

Nearby Weather Stations

Station Location Temp. Windchill Dew Point Humidity Wind Precip. Elev Updated Type
                   

Watches & Warnings

Wind Chill Watch
Issued: 10:14 PM EST Feb. 11, 2016 – National Weather Service

... Wind chill watch remains in effect from late Friday night
through Sunday morning...

... Lake effect snow warning has expired...

* snow accumulations... little or no additional accumulation.

* Hazard types... dangerous wind chills.

* Wind chills... 20 to 30 degrees below zero.

* Timing... minimum wind chills Saturday evening into early
Sunday morning.

* Impacts... potential frostbite to exposed skin in 15 to 30
minutes.

Precautionary/preparedness actions...

If you will be outdoors... dress in layers and wear a hat and
gloves. Young children... the elderly and the homeless are
especially vulnerable to the cold. Appropriate action should be
taken to ensure pets have adequate protection from the cold
temperatures.